sensor_id;sensor_type;location;lat;lon;timestamp;temperature;humidity
27188;DHT22;14708;50.872;5.306;2023-09-07T00:01:23;24.60;59.30
27188;DHT22;14708;50.872;5.306;2023-09-07T00:03:49;24.60;59.50
27188;DHT22;14708;50.872;5.306;2023-09-07T00:06:15;24.60;59.60
27188;DHT22;14708;50.872;5.306;2023-09-07T00:08:40;24.60;59.50
27188;DHT22;14708;50.872;5.306;2023-09-07T00:11:06;24.60;59.70
27188;DHT22;14708;50.872;5.306;2023-09-07T00:13:33;24.60;59.50
27188;DHT22;14708;50.872;5.306;2023-09-07T00:16:03;24.60;59.60
27188;DHT22;14708;50.872;5.306;2023-09-07T00:18:30;24.50;59.60
27188;DHT22;14708;50.872;5.306;2023-09-07T00:20:56;24.60;59.60
27188;DHT22;14708;50.872;5.306;2023-09-07T00:23:22;24.50;59.70
27188;DHT22;14708;50.872;5.306;2023-09-07T00:25:48;24.50;59.80
27188;DHT22;14708;50.872;5.306;2023-09-07T00:28:13;24.60;59.90
27188;DHT22;14708;50.872;5.306;2023-09-07T00:30:39;24.50;59.80
27188;DHT22;14708;50.872;5.306;2023-09-07T00:33:06;24.50;59.80
27188;DHT22;14708;50.872;5.306;2023-09-07T00:35:32;24.50;59.80
27188;DHT22;14708;50.872;5.306;2023-09-07T00:37:57;24.50;59.90
27188;DHT22;14708;50.872;5.306;2023-09-07T00:40:23;24.50;59.80
27188;DHT22;14708;50.872;5.306;2023-09-07T00:42:49;24.50;59.80
27188;DHT22;14708;50.872;5.306;2023-09-07T00:45:15;24.50;59.80
27188;DHT22;14708;50.872;5.306;2023-09-07T00:47:41;24.50;59.90
27188;DHT22;14708;50.872;5.306;2023-09-07T00:50:07;24.50;60.00
27188;DHT22;14708;50.872;5.306;2023-09-07T00:52:34;24.50;60.30
27188;DHT22;14708;50.872;5.306;2023-09-07T00:55:01;24.50;60.20
27188;DHT22;14708;50.872;5.306;2023-09-07T00:57:27;24.50;60.10
27188;DHT22;14708;50.872;5.306;2023-09-07T00:59:52;24.50;60.20
27188;DHT22;14708;50.872;5.306;2023-09-07T01:02:18;24.50;60.30
27188;DHT22;14708;50.872;5.306;2023-09-07T01:04:43;24.50;60.20
27188;DHT22;14708;50.872;5.306;2023-09-07T01:09:42;24.40;60.20
27188;DHT22;14708;50.872;5.306;2023-09-07T01:12:14;24.40;60.30
27188;DHT22;14708;50.872;5.306;2023-09-07T01:14:40;24.40;60.50
27188;DHT22;14708;50.872;5.306;2023-09-07T01:17:06;24.40;60.30
27188;DHT22;14708;50.872;5.306;2023-09-07T01:19:32;24.40;60.40
27188;DHT22;14708;50.872;5.306;2023-09-07T01:21:59;24.40;60.60
27188;DHT22;14708;50.872;5.306;2023-09-07T01:24:26;24.40;60.60
27188;DHT22;14708;50.872;5.306;2023-09-07T01:26:56;24.40;60.50
27188;DHT22;14708;50.872;5.306;2023-09-07T01:29:22;24.40;60.50
27188;DHT22;14708;50.872;5.306;2023-09-07T01:31:48;24.40;60.60
27188;DHT22;14708;50.872;5.306;2023-09-07T01:34:14;24.40;60.60
27188;DHT22;14708;50.872;5.306;2023-09-07T01:36:40;24.40;60.70
27188;DHT22;14708;50.872;5.306;2023-09-07T01:39:07;24.40;60.60
27188;DHT22;14708;50.872;5.306;2023-09-07T01:41:35;24.40;60.60
27188;DHT22;14708;50.872;5.306;2023-09-07T01:44:00;24.40;60.70
27188;DHT22;14708;50.872;5.306;2023-09-07T01:46:26;24.40;60.70
27188;DHT22;14708;50.872;5.306;2023-09-07T01:48:52;24.30;60.70
27188;DHT22;14708;50.872;5.306;2023-09-07T01:51:17;24.40;61.00
27188;DHT22;14708;50.872;5.306;2023-09-07T01:53:43;24.30;60.80
27188;DHT22;14708;50.872;5.306;2023-09-07T01:56:09;24.30;60.70
27188;DHT22;14708;50.872;5.306;2023-09-07T01:58:35;24.30;60.90
27188;DHT22;14708;50.872;5.306;2023-09-07T02:01:02;24.30;60.70
27188;DHT22;14708;50.872;5.306;2023-09-07T02:03:28;24.30;60.80
27188;DHT22;14708;50.872;5.306;2023-09-07T02:05:53;24.30;60.80
27188;DHT22;14708;50.872;5.306;2023-09-07T02:08:19;24.30;61.00
27188;DHT22;14708;50.872;5.306;2023-09-07T02:10:45;24.30;61.00
27188;DHT22;14708;50.872;5.306;2023-09-07T02:13:11;24.30;61.00
27188;DHT22;14708;50.872;5.306;2023-09-07T02:15:38;24.30;61.10
27188;DHT22;14708;50.872;5.306;2023-09-07T02:18:04;24.30;61.00
27188;DHT22;14708;50.872;5.306;2023-09-07T02:20:34;24.30;61.00
27188;DHT22;14708;50.872;5.306;2023-09-07T02:23:00;24.30;61.10
27188;DHT22;14708;50.872;5.306;2023-09-07T02:25:26;24.30;61.20
27188;DHT22;14708;50.872;5.306;2023-09-07T02:27:53;24.30;61.20
27188;DHT22;14708;50.872;5.306;2023-09-07T02:30:18;24.40;61.30
27188;DHT22;14708;50.872;5.306;2023-09-07T02:32:44;24.30;61.20
27188;DHT22;14708;50.872;5.306;2023-09-07T02:35:10;24.30;61.20
27188;DHT22;14708;50.872;5.306;2023-09-07T02:37:36;24.30;61.20
27188;DHT22;14708;50.872;5.306;2023-09-07T02:40:02;24.30;61.30
27188;DHT22;14708;50.872;5.306;2023-09-07T02:42:33;24.30;61.30
27188;DHT22;14708;50.872;5.306;2023-09-07T02:44:58;24.30;61.30
27188;DHT22;14708;50.872;5.306;2023-09-07T02:47:24;24.30;61.30
27188;DHT22;14708;50.872;5.306;2023-09-07T02:49:49;24.30;61.40
27188;DHT22;14708;50.872;5.306;2023-09-07T02:52:15;24.30;61.40
27188;DHT22;14708;50.872;5.306;2023-09-07T02:54:41;24.30;61.30
27188;DHT22;14708;50.872;5.306;2023-09-07T02:57:07;24.30;61.30
27188;DHT22;14708;50.872;5.306;2023-09-07T02:59:33;24.30;61.40
27188;DHT22;14708;50.872;5.306;2023-09-07T03:01:58;24.30;61.50
27188;DHT22;14708;50.872;5.306;2023-09-07T03:04:24;24.30;61.40
27188;DHT22;14708;50.872;5.306;2023-09-07T03:06:50;24.30;61.40
27188;DHT22;14708;50.872;5.306;2023-09-07T03:09:15;24.30;61.40
27188;DHT22;14708;50.872;5.306;2023-09-07T03:11:41;24.20;61.50
27188;DHT22;14708;50.872;5.306;2023-09-07T03:14:06;24.20;61.50
27188;DHT22;14708;50.872;5.306;2023-09-07T03:16:32;24.20;61.60
27188;DHT22;14708;50.872;5.306;2023-09-07T03:18:58;24.20;61.50
27188;DHT22;14708;50.872;5.306;2023-09-07T03:21:23;24.20;61.40
27188;DHT22;14708;50.872;5.306;2023-09-07T03:23:55;24.20;61.50
27188;DHT22;14708;50.872;5.306;2023-09-07T03:26:21;24.20;61.40
27188;DHT22;14708;50.872;5.306;2023-09-07T03:28:47;24.20;61.60
27188;DHT22;14708;50.872;5.306;2023-09-07T03:31:12;24.20;61.60
27188;DHT22;14708;50.872;5.306;2023-09-07T03:33:38;24.20;61.50
27188;DHT22;14708;50.872;5.306;2023-09-07T03:36:04;24.20;61.50
27188;DHT22;14708;50.872;5.306;2023-09-07T03:38:30;24.20;61.60
27188;DHT22;14708;50.872;5.306;2023-09-07T03:40:55;24.20;61.60
27188;DHT22;14708;50.872;5.306;2023-09-07T03:43:21;24.20;61.60
27188;DHT22;14708;50.872;5.306;2023-09-07T03:45:47;24.20;61.60
27188;DHT22;14708;50.872;5.306;2023-09-07T03:48:12;24.20;61.50
27188;DHT22;14708;50.872;5.306;2023-09-07T03:50:38;24.20;61.40
27188;DHT22;14708;50.872;5.306;2023-09-07T03:53:04;24.20;61.50
27188;DHT22;14708;50.872;5.306;2023-09-07T03:55:29;24.20;61.40
27188;DHT22;14708;50.872;5.306;2023-09-07T03:57:55;24.20;61.40
27188;DHT22;14708;50.872;5.306;2023-09-07T04:00:20;24.20;61.50
27188;DHT22;14708;50.872;5.306;2023-09-07T04:02:46;24.20;61.70
27188;DHT22;14708;50.872;5.306;2023-09-07T04:05:12;24.20;61.50
27188;DHT22;14708;50.872;5.306;2023-09-07T04:07:38;24.20;61.60
27188;DHT22;14708;50.872;5.306;2023-09-07T04:10:05;24.20;61.50
27188;DHT22;14708;50.872;5.306;2023-09-07T04:12:30;24.20;61.60
27188;DHT22;14708;50.872;5.306;2023-09-07T04:14:56;24.20;61.70
27188;DHT22;14708;50.872;5.306;2023-09-07T04:17:22;24.20;61.60
27188;DHT22;14708;50.872;5.306;2023-09-07T04:19:48;24.20;61.70
27188;DHT22;14708;50.872;5.306;2023-09-07T04:22:14;24.20;61.70
27188;DHT22;14708;50.872;5.306;2023-09-07T04:24:39;24.10;61.70
27188;DHT22;14708;50.872;5.306;2023-09-07T04:27:05;24.20;61.80
27188;DHT22;14708;50.872;5.306;2023-09-07T04:29:30;24.10;61.60
27188;DHT22;14708;50.872;5.306;2023-09-07T04:31:56;24.20;61.70
27188;DHT22;14708;50.872;5.306;2023-09-07T04:34:22;24.10;61.60
27188;DHT22;14708;50.872;5.306;2023-09-07T04:36:48;24.10;61.70
27188;DHT22;14708;50.872;5.306;2023-09-07T04:39:14;24.10;61.80
27188;DHT22;14708;50.872;5.306;2023-09-07T04:41:40;24.10;61.80
27188;DHT22;14708;50.872;5.306;2023-09-07T04:44:06;24.10;61.90
27188;DHT22;14708;50.872;5.306;2023-09-07T04:46:32;24.10;61.70
27188;DHT22;14708;50.872;5.306;2023-09-07T04:48:58;24.10;62.00
27188;DHT22;14708;50.872;5.306;2023-09-07T04:51:23;24.10;61.90
27188;DHT22;14708;50.872;5.306;2023-09-07T04:53:51;24.10;61.80
27188;DHT22;14708;50.872;5.306;2023-09-07T04:56:16;24.10;62.00
27188;DHT22;14708;50.872;5.306;2023-09-07T04:58:43;24.10;62.10
27188;DHT22;14708;50.872;5.306;2023-09-07T05:01:10;24.10;62.10
27188;DHT22;14708;50.872;5.306;2023-09-07T05:03:37;24.10;62.00
27188;DHT22;14708;50.872;5.306;2023-09-07T05:06:04;24.10;62.10
27188;DHT22;14708;50.872;5.306;2023-09-07T05:08:30;24.10;62.10
27188;DHT22;14708;50.872;5.306;2023-09-07T05:10:56;24.10;62.10
27188;DHT22;14708;50.872;5.306;2023-09-07T05:13:23;24.00;62.10
27188;DHT22;14708;50.872;5.306;2023-09-07T05:15:50;24.00;61.90
27188;DHT22;14708;50.872;5.306;2023-09-07T05:18:17;24.00;61.90
27188;DHT22;14708;50.872;5.306;2023-09-07T05:20:43;24.00;61.90
27188;DHT22;14708;50.872;5.306;2023-09-07T05:23:14;24.10;62.10
27188;DHT22;14708;50.872;5.306;2023-09-07T05:25:48;24.00;61.90
27188;DHT22;14708;50.872;5.306;2023-09-07T05:28:15;24.00;62.00
27188;DHT22;14708;50.872;5.306;2023-09-07T05:30:41;24.00;62.00
27188;DHT22;14708;50.872;5.306;2023-09-07T05:33:09;24.00;62.20
27188;DHT22;14708;50.872;5.306;2023-09-07T05:35:34;24.00;62.90
27188;DHT22;14708;50.872;5.306;2023-09-07T05:38:00;24.10;62.20
27188;DHT22;14708;50.872;5.306;2023-09-07T05:40:26;24.10;62.20
27188;DHT22;14708;50.872;5.306;2023-09-07T05:42:52;24.10;62.00
27188;DHT22;14708;50.872;5.306;2023-09-07T05:45:18;24.10;61.90
27188;DHT22;14708;50.872;5.306;2023-09-07T05:47:43;24.10;61.90
27188;DHT22;14708;50.872;5.306;2023-09-07T05:50:09;24.20;61.90
27188;DHT22;14708;50.872;5.306;2023-09-07T05:52:34;24.10;61.80
27188;DHT22;14708;50.872;5.306;2023-09-07T05:55:00;24.10;61.90
27188;DHT22;14708;50.872;5.306;2023-09-07T05:57:26;24.10;61.90
27188;DHT22;14708;50.872;5.306;2023-09-07T05:59:52;24.10;61.90
27188;DHT22;14708;50.872;5.306;2023-09-07T06:02:17;24.10;61.80
27188;DHT22;14708;50.872;5.306;2023-09-07T06:04:43;24.10;61.80
27188;DHT22;14708;50.872;5.306;2023-09-07T06:07:09;24.20;57.60
27188;DHT22;14708;50.872;5.306;2023-09-07T06:09:34;24.10;55.70
27188;DHT22;14708;50.872;5.306;2023-09-07T06:12:02;24.00;55.80
27188;DHT22;14708;50.872;5.306;2023-09-07T06:14:28;24.00;55.80
27188;DHT22;14708;50.872;5.306;2023-09-07T06:16:54;23.90;55.80
27188;DHT22;14708;50.872;5.306;2023-09-07T06:19:19;23.90;56.10
27188;DHT22;14708;50.872;5.306;2023-09-07T06:21:45;23.90;55.80
27188;DHT22;14708;50.872;5.306;2023-09-07T06:24:11;23.90;56.10
27188;DHT22;14708;50.872;5.306;2023-09-07T06:26:36;23.90;56.60
27188;DHT22;14708;50.872;5.306;2023-09-07T06:29:02;23.90;56.50
27188;DHT22;14708;50.872;5.306;2023-09-07T06:31:28;23.90;56.50
27188;DHT22;14708;50.872;5.306;2023-09-07T06:33:54;23.90;56.60
27188;DHT22;14708;50.872;5.306;2023-09-07T06:36:20;23.90;57.00
27188;DHT22;14708;50.872;5.306;2023-09-07T06:38:45;23.90;57.00
27188;DHT22;14708;50.872;5.306;2023-09-07T06:41:11;23.90;57.10
27188;DHT22;14708;50.872;5.306;2023-09-07T06:43:38;23.90;57.20
27188;DHT22;14708;50.872;5.306;2023-09-07T06:46:07;23.80;57.30
27188;DHT22;14708;50.872;5.306;2023-09-07T06:48:34;23.80;57.50
27188;DHT22;14708;50.872;5.306;2023-09-07T06:51:04;23.80;57.60
27188;DHT22;14708;50.872;5.306;2023-09-07T06:53:30;23.90;57.90
27188;DHT22;14708;50.872;5.306;2023-09-07T06:56:03;23.90;57.90
27188;DHT22;14708;50.872;5.306;2023-09-07T06:58:29;23.90;57.80
27188;DHT22;14708;50.872;5.306;2023-09-07T07:00:58;23.90;58.00
27188;DHT22;14708;50.872;5.306;2023-09-07T07:03:27;24.00;58.00
27188;DHT22;14708;50.872;5.306;2023-09-07T07:05:53;24.00;57.80
27188;DHT22;14708;50.872;5.306;2023-09-07T07:08:19;24.00;58.00
27188;DHT22;14708;50.872;5.306;2023-09-07T07:10:44;24.00;58.10
27188;DHT22;14708;50.872;5.306;2023-09-07T07:13:11;24.00;58.70
27188;DHT22;14708;50.872;5.306;2023-09-07T07:15:36;24.00;58.90
27188;DHT22;14708;50.872;5.306;2023-09-07T07:18:02;24.10;59.60
27188;DHT22;14708;50.872;5.306;2023-09-07T07:20:43;24.00;59.10
27188;DHT22;14708;50.872;5.306;2023-09-07T07:23:11;24.10;59.20
27188;DHT22;14708;50.872;5.306;2023-09-07T07:25:38;24.10;59.30
27188;DHT22;14708;50.872;5.306;2023-09-07T07:28:04;24.10;59.60
27188;DHT22;14708;50.872;5.306;2023-09-07T07:30:35;24.20;59.90
27188;DHT22;14708;50.872;5.306;2023-09-07T07:33:05;24.10;59.50
27188;DHT22;14708;50.872;5.306;2023-09-07T07:35:32;24.20;59.00
27188;DHT22;14708;50.872;5.306;2023-09-07T07:37:57;24.10;59.40
27188;DHT22;14708;50.872;5.306;2023-09-07T07:40:23;24.10;58.60
27188;DHT22;14708;50.872;5.306;2023-09-07T07:42:52;24.20;59.00
27188;DHT22;14708;50.872;5.306;2023-09-07T07:45:17;24.20;58.90
27188;DHT22;14708;50.872;5.306;2023-09-07T07:47:48;24.20;59.20
27188;DHT22;14708;50.872;5.306;2023-09-07T07:50:15;24.20;59.00
27188;DHT22;14708;50.872;5.306;2023-09-07T07:52:41;24.20;59.30
27188;DHT22;14708;50.872;5.306;2023-09-07T07:55:07;24.30;59.50
27188;DHT22;14708;50.872;5.306;2023-09-07T07:57:33;24.30;59.60
27188;DHT22;14708;50.872;5.306;2023-09-07T07:59:58;24.30;59.60
27188;DHT22;14708;50.872;5.306;2023-09-07T08:02:24;24.30;59.30
27188;DHT22;14708;50.872;5.306;2023-09-07T08:04:50;24.40;59.10
27188;DHT22;14708;50.872;5.306;2023-09-07T08:07:16;24.30;59.20
27188;DHT22;14708;50.872;5.306;2023-09-07T08:09:42;24.30;58.90
27188;DHT22;14708;50.872;5.306;2023-09-07T08:12:07;24.30;59.40
27188;DHT22;14708;50.872;5.306;2023-09-07T08:14:33;24.30;59.30
27188;DHT22;14708;50.872;5.306;2023-09-07T08:16:59;24.30;59.50
27188;DHT22;14708;50.872;5.306;2023-09-07T08:19:25;24.30;59.70
27188;DHT22;14708;50.872;5.306;2023-09-07T08:21:53;24.20;59.90
27188;DHT22;14708;50.872;5.306;2023-09-07T08:24:19;24.20;60.10
27188;DHT22;14708;50.872;5.306;2023-09-07T08:26:44;24.20;60.10
27188;DHT22;14708;50.872;5.306;2023-09-07T08:29:10;24.10;60.20
27188;DHT22;14708;50.872;5.306;2023-09-07T08:31:36;24.20;60.10
27188;DHT22;14708;50.872;5.306;2023-09-07T08:34:07;24.20;60.10
27188;DHT22;14708;50.872;5.306;2023-09-07T08:36:34;24.20;60.10
27188;DHT22;14708;50.872;5.306;2023-09-07T08:39:01;24.20;60.40
27188;DHT22;14708;50.872;5.306;2023-09-07T08:41:32;24.20;60.40
27188;DHT22;14708;50.872;5.306;2023-09-07T08:44:04;24.20;60.60
27188;DHT22;14708;50.872;5.306;2023-09-07T08:46:31;24.20;60.50
27188;DHT22;14708;50.872;5.306;2023-09-07T08:48:57;24.30;60.60
27188;DHT22;14708;50.872;5.306;2023-09-07T08:51:25;24.20;60.40
27188;DHT22;14708;50.872;5.306;2023-09-07T08:53:53;24.30;60.50
27188;DHT22;14708;50.872;5.306;2023-09-07T08:56:22;24.30;60.40
27188;DHT22;14708;50.872;5.306;2023-09-07T08:58:48;24.30;60.60
27188;DHT22;14708;50.872;5.306;2023-09-07T09:01:15;24.30;60.50
27188;DHT22;14708;50.872;5.306;2023-09-07T09:03:45;24.30;60.50
27188;DHT22;14708;50.872;5.306;2023-09-07T09:06:11;24.30;60.80
27188;DHT22;14708;50.872;5.306;2023-09-07T09:08:44;24.30;61.90
27188;DHT22;14708;50.872;5.306;2023-09-07T09:11:10;24.30;61.00
27188;DHT22;14708;50.872;5.306;2023-09-07T09:13:37;24.30;61.20
27188;DHT22;14708;50.872;5.306;2023-09-07T09:16:02;24.30;61.30
27188;DHT22;14708;50.872;5.306;2023-09-07T09:18:28;24.30;61.00
27188;DHT22;14708;50.872;5.306;2023-09-07T09:20:55;24.40;61.40
27188;DHT22;14708;50.872;5.306;2023-09-07T09:23:21;24.50;61.20
27188;DHT22;14708;50.872;5.306;2023-09-07T09:25:50;24.50;61.10
27188;DHT22;14708;50.872;5.306;2023-09-07T09:28:16;24.50;61.40
27188;DHT22;14708;50.872;5.306;2023-09-07T09:30:42;24.50;61.40
27188;DHT22;14708;50.872;5.306;2023-09-07T09:33:11;24.60;61.90
27188;DHT22;14708;50.872;5.306;2023-09-07T09:35:37;24.60;61.90
27188;DHT22;14708;50.872;5.306;2023-09-07T09:38:04;24.60;62.00
27188;DHT22;14708;50.872;5.306;2023-09-07T09:40:31;24.60;62.20
27188;DHT22;14708;50.872;5.306;2023-09-07T09:42:57;24.60;62.80
27188;DHT22;14708;50.872;5.306;2023-09-07T09:45:26;24.60;62.60
27188;DHT22;14708;50.872;5.306;2023-09-07T09:47:54;24.70;62.60
27188;DHT22;14708;50.872;5.306;2023-09-07T09:50:22;24.60;62.30
27188;DHT22;14708;50.872;5.306;2023-09-07T09:52:48;24.60;62.20
27188;DHT22;14708;50.872;5.306;2023-09-07T09:55:15;24.60;62.20
27188;DHT22;14708;50.872;5.306;2023-09-07T09:57:41;24.60;62.30
27188;DHT22;14708;50.872;5.306;2023-09-07T10:00:07;24.60;62.50
27188;DHT22;14708;50.872;5.306;2023-09-07T10:03:08;24.60;62.10
27188;DHT22;14708;50.872;5.306;2023-09-07T10:05:31;24.60;62.10
27188;DHT22;14708;50.872;5.306;2023-09-07T10:08:01;24.60;62.00
27188;DHT22;14708;50.872;5.306;2023-09-07T10:10:36;24.70;62.30
27188;DHT22;14708;50.872;5.306;2023-09-07T10:13:02;24.70;62.40
27188;DHT22;14708;50.872;5.306;2023-09-07T10:15:29;24.70;62.40
27188;DHT22;14708;50.872;5.306;2023-09-07T10:18:13;24.70;62.40
27188;DHT22;14708;50.872;5.306;2023-09-07T10:20:56;24.70;62.60
27188;DHT22;14708;50.872;5.306;2023-09-07T10:26:00;24.70;63.00
27188;DHT22;14708;50.872;5.306;2023-09-07T10:28:26;24.70;62.80
27188;DHT22;14708;50.872;5.306;2023-09-07T10:31:02;24.70;62.90
27188;DHT22;14708;50.872;5.306;2023-09-07T10:33:30;24.70;62.80
27188;DHT22;14708;50.872;5.306;2023-09-07T10:35:55;24.70;63.30
27188;DHT22;14708;50.872;5.306;2023-09-07T10:38:22;24.70;62.90
27188;DHT22;14708;50.872;5.306;2023-09-07T10:40:49;24.70;62.90
27188;DHT22;14708;50.872;5.306;2023-09-07T10:43:19;24.70;62.90
27188;DHT22;14708;50.872;5.306;2023-09-07T10:45:45;24.70;62.90
27188;DHT22;14708;50.872;5.306;2023-09-07T10:48:12;24.70;63.20
27188;DHT22;14708;50.872;5.306;2023-09-07T10:50:45;24.70;63.40
27188;DHT22;14708;50.872;5.306;2023-09-07T10:53:12;24.70;63.30
27188;DHT22;14708;50.872;5.306;2023-09-07T10:55:39;24.70;63.10
27188;DHT22;14708;50.872;5.306;2023-09-07T10:58:05;24.70;63.20
27188;DHT22;14708;50.872;5.306;2023-09-07T11:00:31;24.70;63.00
27188;DHT22;14708;50.872;5.306;2023-09-07T11:02:57;24.70;63.00
27188;DHT22;14708;50.872;5.306;2023-09-07T11:05:23;24.70;62.90
27188;DHT22;14708;50.872;5.306;2023-09-07T11:07:49;24.70;62.80
27188;DHT22;14708;50.872;5.306;2023-09-07T11:10:15;24.70;62.60
27188;DHT22;14708;50.872;5.306;2023-09-07T11:12:41;24.60;62.40
27188;DHT22;14708;50.872;5.306;2023-09-07T11:15:10;24.60;62.60
27188;DHT22;14708;50.872;5.306;2023-09-07T11:17:39;24.60;62.70
27188;DHT22;14708;50.872;5.306;2023-09-07T11:20:06;24.60;62.80
27188;DHT22;14708;50.872;5.306;2023-09-07T11:22:32;24.60;62.50
27188;DHT22;14708;50.872;5.306;2023-09-07T11:24:59;24.60;62.50
27188;DHT22;14708;50.872;5.306;2023-09-07T11:27:39;24.60;62.70
27188;DHT22;14708;50.872;5.306;2023-09-07T11:30:05;24.60;62.50
27188;DHT22;14708;50.872;5.306;2023-09-07T11:32:36;24.60;62.40
27188;DHT22;14708;50.872;5.306;2023-09-07T11:35:03;24.60;62.60
27188;DHT22;14708;50.872;5.306;2023-09-07T11:37:33;24.60;62.50
27188;DHT22;14708;50.872;5.306;2023-09-07T11:40:00;24.70;62.20
27188;DHT22;14708;50.872;5.306;2023-09-07T11:42:26;24.70;63.00
27188;DHT22;14708;50.872;5.306;2023-09-07T11:44:51;24.70;62.10
27188;DHT22;14708;50.872;5.306;2023-09-07T11:47:17;24.70;62.30
27188;DHT22;14708;50.872;5.306;2023-09-07T11:49:43;24.70;62.40
27188;DHT22;14708;50.872;5.306;2023-09-07T11:52:08;24.70;62.40
27188;DHT22;14708;50.872;5.306;2023-09-07T11:54:34;24.60;62.70
27188;DHT22;14708;50.872;5.306;2023-09-07T11:57:00;24.70;63.00
27188;DHT22;14708;50.872;5.306;2023-09-07T11:59:25;24.70;62.90
27188;DHT22;14708;50.872;5.306;2023-09-07T12:01:51;24.70;63.10
27188;DHT22;14708;50.872;5.306;2023-09-07T12:04:17;24.70;62.90
27188;DHT22;14708;50.872;5.306;2023-09-07T12:06:43;24.70;62.80
27188;DHT22;14708;50.872;5.306;2023-09-07T12:09:08;24.70;62.70
27188;DHT22;14708;50.872;5.306;2023-09-07T12:11:37;24.80;62.80
27188;DHT22;14708;50.872;5.306;2023-09-07T12:14:02;24.80;62.80
27188;DHT22;14708;50.872;5.306;2023-09-07T12:16:29;24.80;62.60
27188;DHT22;14708;50.872;5.306;2023-09-07T12:18:55;24.80;62.70
27188;DHT22;14708;50.872;5.306;2023-09-07T12:21:20;24.80;62.80
27188;DHT22;14708;50.872;5.306;2023-09-07T12:23:46;24.70;63.00
27188;DHT22;14708;50.872;5.306;2023-09-07T12:26:13;24.70;63.00
27188;DHT22;14708;50.872;5.306;2023-09-07T12:28:39;24.70;63.20
27188;DHT22;14708;50.872;5.306;2023-09-07T12:31:05;24.70;63.10
27188;DHT22;14708;50.872;5.306;2023-09-07T12:33:31;24.70;63.00
27188;DHT22;14708;50.872;5.306;2023-09-07T12:35:58;24.70;63.10
27188;DHT22;14708;50.872;5.306;2023-09-07T12:38:24;24.70;63.00
27188;DHT22;14708;50.872;5.306;2023-09-07T12:40:54;24.70;63.00
27188;DHT22;14708;50.872;5.306;2023-09-07T12:43:19;24.70;63.10
27188;DHT22;14708;50.872;5.306;2023-09-07T12:45:46;24.70;63.10
27188;DHT22;14708;50.872;5.306;2023-09-07T12:48:11;24.70;63.10
27188;DHT22;14708;50.872;5.306;2023-09-07T12:50:37;24.70;63.10
27188;DHT22;14708;50.872;5.306;2023-09-07T12:53:03;24.70;63.20
27188;DHT22;14708;50.872;5.306;2023-09-07T12:55:28;24.70;63.10
27188;DHT22;14708;50.872;5.306;2023-09-07T12:57:55;24.70;63.10
27188;DHT22;14708;50.872;5.306;2023-09-07T13:00:21;24.70;63.00
27188;DHT22;14708;50.872;5.306;2023-09-07T13:02:46;24.70;63.10
27188;DHT22;14708;50.872;5.306;2023-09-07T13:05:12;24.70;63.30
27188;DHT22;14708;50.872;5.306;2023-09-07T13:07:38;24.70;63.40
27188;DHT22;14708;50.872;5.306;2023-09-07T13:10:05;24.70;63.30
27188;DHT22;14708;50.872;5.306;2023-09-07T13:12:31;24.70;63.00
27188;DHT22;14708;50.872;5.306;2023-09-07T13:14:57;24.70;63.10
27188;DHT22;14708;50.872;5.306;2023-09-07T13:17:23;24.70;63.30
27188;DHT22;14708;50.872;5.306;2023-09-07T13:19:49;24.70;63.00
27188;DHT22;14708;50.872;5.306;2023-09-07T13:22:14;24.80;63.00
27188;DHT22;14708;50.872;5.306;2023-09-07T13:24:40;24.80;62.80
27188;DHT22;14708;50.872;5.306;2023-09-07T13:27:06;24.80;62.90
27188;DHT22;14708;50.872;5.306;2023-09-07T13:29:32;24.90;63.20
27188;DHT22;14708;50.872;5.306;2023-09-07T13:31:58;24.90;63.20
27188;DHT22;14708;50.872;5.306;2023-09-07T13:34:24;24.90;63.20
27188;DHT22;14708;50.872;5.306;2023-09-07T13:36:50;24.90;63.40
27188;DHT22;14708;50.872;5.306;2023-09-07T13:39:16;24.90;63.40
27188;DHT22;14708;50.872;5.306;2023-09-07T13:41:42;24.80;63.60
27188;DHT22;14708;50.872;5.306;2023-09-07T13:44:07;24.90;63.70
27188;DHT22;14708;50.872;5.306;2023-09-07T13:46:33;24.90;63.80
27188;DHT22;14708;50.872;5.306;2023-09-07T13:48:59;24.90;64.10
27188;DHT22;14708;50.872;5.306;2023-09-07T13:51:25;24.90;63.80
27188;DHT22;14708;50.872;5.306;2023-09-07T13:53:51;24.90;64.00
27188;DHT22;14708;50.872;5.306;2023-09-07T13:56:20;25.00;64.10
27188;DHT22;14708;50.872;5.306;2023-09-07T13:58:45;25.00;64.10
27188;DHT22;14708;50.872;5.306;2023-09-07T14:01:11;25.00;64.50
27188;DHT22;14708;50.872;5.306;2023-09-07T14:03:37;25.00;64.50
27188;DHT22;14708;50.872;5.306;2023-09-07T14:06:03;25.00;64.70
27188;DHT22;14708;50.872;5.306;2023-09-07T14:08:28;25.00;64.90
27188;DHT22;14708;50.872;5.306;2023-09-07T14:10:55;25.00;64.70
27188;DHT22;14708;50.872;5.306;2023-09-07T14:13:21;25.10;65.40
27188;DHT22;14708;50.872;5.306;2023-09-07T14:15:47;25.20;65.30
27188;DHT22;14708;50.872;5.306;2023-09-07T14:18:12;25.30;65.10
27188;DHT22;14708;50.872;5.306;2023-09-07T14:20:38;25.40;64.80
27188;DHT22;14708;50.872;5.306;2023-09-07T14:23:04;25.50;64.90
27188;DHT22;14708;50.872;5.306;2023-09-07T14:25:30;25.50;64.70
27188;DHT22;14708;50.872;5.306;2023-09-07T14:27:56;25.50;64.50
27188;DHT22;14708;50.872;5.306;2023-09-07T14:30:21;25.60;64.70
27188;DHT22;14708;50.872;5.306;2023-09-07T14:32:47;25.60;64.50
27188;DHT22;14708;50.872;5.306;2023-09-07T14:35:14;25.60;64.60
27188;DHT22;14708;50.872;5.306;2023-09-07T14:37:40;25.70;64.60
27188;DHT22;14708;50.872;5.306;2023-09-07T14:40:07;25.70;64.60
27188;DHT22;14708;50.872;5.306;2023-09-07T14:42:34;25.70;64.40
27188;DHT22;14708;50.872;5.306;2023-09-07T14:44:59;25.70;64.40
27188;DHT22;14708;50.872;5.306;2023-09-07T14:47:28;25.70;64.50
27188;DHT22;14708;50.872;5.306;2023-09-07T14:49:54;25.60;64.20
27188;DHT22;14708;50.872;5.306;2023-09-07T14:52:20;25.50;64.40
27188;DHT22;14708;50.872;5.306;2023-09-07T14:54:49;25.40;64.80
27188;DHT22;14708;50.872;5.306;2023-09-07T14:57:14;25.30;64.90
27188;DHT22;14708;50.872;5.306;2023-09-07T14:59:40;25.30;65.10
27188;DHT22;14708;50.872;5.306;2023-09-07T15:02:06;25.30;65.10
27188;DHT22;14708;50.872;5.306;2023-09-07T15:04:32;25.30;65.40
27188;DHT22;14708;50.872;5.306;2023-09-07T15:06:58;25.20;65.20
27188;DHT22;14708;50.872;5.306;2023-09-07T15:09:24;25.20;65.50
27188;DHT22;14708;50.872;5.306;2023-09-07T15:11:50;25.20;66.20
27188;DHT22;14708;50.872;5.306;2023-09-07T15:14:16;25.20;65.40
27188;DHT22;14708;50.872;5.306;2023-09-07T15:16:42;25.20;65.90
27188;DHT22;14708;50.872;5.306;2023-09-07T15:19:08;25.40;65.80
27188;DHT22;14708;50.872;5.306;2023-09-07T15:21:33;25.50;65.60
27188;DHT22;14708;50.872;5.306;2023-09-07T15:23:59;25.60;65.70
27188;DHT22;14708;50.872;5.306;2023-09-07T15:26:24;25.70;65.50
27188;DHT22;14708;50.872;5.306;2023-09-07T15:28:50;25.70;65.20
27188;DHT22;14708;50.872;5.306;2023-09-07T15:31:16;25.80;65.10